createdAt,value
2018-12-16T00:04:03.931Z,101916.64
2018-12-16T00:06:33.188Z,101908.27
2018-12-16T00:11:38.073Z,101908.60
2018-12-16T00:14:07.335Z,101896.37
2018-12-16T00:16:36.588Z,101889.27
2018-12-16T00:19:05.838Z,101884.99
2018-12-16T00:21:35.111Z,101887.50
2018-12-16T00:24:04.381Z,101887.19
2018-12-16T00:27:11.700Z,101883.36
2018-12-16T00:29:41.042Z,101880.58
2018-12-16T00:32:10.298Z,101877.61
2018-12-16T00:34:39.571Z,101878.11
2018-12-16T00:37:08.827Z,101873.20
2018-12-16T00:39:38.111Z,101864.80
2018-12-16T00:42:07.365Z,101857.97
2018-12-16T00:44:36.642Z,101856.22
2018-12-16T00:47:05.892Z,101865.95
2018-12-16T00:49:35.153Z,101866.20
2018-12-16T00:52:04.406Z,101860.76
2018-12-16T00:54:33.667Z,101863.20
2018-12-16T00:57:02.919Z,101859.31
2018-12-16T00:59:32.158Z,101861.78
2018-12-16T01:02:01.424Z,101855.08
2018-12-16T01:04:30.693Z,101861.66
2018-12-16T01:06:59.956Z,101861.53
2018-12-16T01:09:29.206Z,101861.19
2018-12-16T01:11:58.467Z,101858.66
2018-12-16T01:14:27.721Z,101854.25
2018-12-16T01:16:56.994Z,101850.95
2018-12-16T01:19:26.251Z,101849.77
2018-12-16T01:21:55.543Z,101850.30
2018-12-16T01:24:24.801Z,101848.69
2018-12-16T01:26:54.078Z,101843.19
2018-12-16T01:29:23.341Z,101840.45
2018-12-16T01:31:52.605Z,101850.14
2018-12-16T01:34:21.857Z,101855.27
2018-12-16T01:36:51.134Z,101847.70
2018-12-16T01:39:20.386Z,101842.20
2018-12-16T01:41:49.655Z,101846.53
2018-12-16T01:44:18.916Z,101837.02
2018-12-16T01:46:48.188Z,101839.48
2018-12-16T01:49:17.458Z,101826.73
2018-12-16T01:51:46.723Z,101821.89
2018-12-16T01:54:15.979Z,101820.59
2018-12-16T01:56:45.248Z,101821.42
2018-12-16T01:59:14.517Z,101804.54
2018-12-16T02:02:02.516Z,101799.10
2018-12-16T02:04:31.786Z,101795.36
2018-12-16T02:07:01.082Z,101787.16
2018-12-16T02:09:30.348Z,101779.84
2018-12-16T02:11:59.621Z,101772.80
2018-12-16T02:14:28.878Z,101763.03
2018-12-16T02:16:58.142Z,101761.40
2018-12-16T02:19:46.461Z,101753.00
2018-12-16T02:22:15.736Z,101749.75
2018-12-16T02:24:45.008Z,101741.66
2018-12-16T02:27:14.260Z,101738.38
2018-12-16T02:29:43.853Z,101730.79
2018-12-16T02:32:13.136Z,101731.95
2018-12-16T02:34:42.396Z,101730.03
2018-12-16T02:37:11.669Z,101723.44
2018-12-16T02:39:40.930Z,101718.95
2018-12-16T02:42:10.202Z,101725.49
2018-12-16T02:44:39.457Z,101720.33
2018-12-16T02:47:08.735Z,101724.77
2018-12-16T02:49:38.008Z,101723.98
2018-12-16T02:52:07.279Z,101721.85
2018-12-16T02:54:36.540Z,101714.22
2018-12-16T02:57:05.796Z,101709.06
2018-12-16T02:59:35.069Z,101705.81
2018-12-16T03:02:04.328Z,101705.81
2018-12-16T03:04:33.613Z,101690.29
2018-12-16T03:07:02.878Z,101692.73
2018-12-16T03:09:32.155Z,101682.06
2018-12-16T03:12:01.413Z,101683.11
2018-12-16T03:14:30.704Z,101679.28
2018-12-16T03:16:59.967Z,101677.41
2018-12-16T03:19:29.243Z,101670.55
2018-12-16T03:21:58.534Z,101676.47
2018-12-16T03:24:27.816Z,101670.50
2018-12-16T03:26:57.077Z,101671.08
2018-12-16T03:29:26.353Z,101661.05
2018-12-16T03:31:55.611Z,101665.65
2018-12-16T03:34:24.941Z,101642.80
2018-12-16T03:36:54.219Z,101642.75
2018-12-16T03:39:23.500Z,101651.68
2018-12-16T03:41:52.770Z,101642.70
2018-12-16T03:44:22.050Z,101631.03
2018-12-16T03:46:51.312Z,101631.03
2018-12-16T03:49:20.581Z,101617.66
2018-12-16T03:51:49.834Z,101611.42
2018-12-16T03:54:19.107Z,101607.93
2018-12-16T03:56:48.380Z,101592.20
2018-12-16T03:59:37.554Z,101592.27
2018-12-16T04:02:06.821Z,101590.71
2018-12-16T04:04:36.091Z,101583.13
2018-12-16T04:07:05.348Z,101577.70
2018-12-16T04:09:34.631Z,101570.07
2018-12-16T04:14:52.283Z,101568.86
2018-12-16T04:17:21.545Z,101547.69
2018-12-16T04:20:09.864Z,101544.77
2018-12-16T04:22:39.125Z,101529.82
2018-12-16T04:25:08.398Z,101520.82
2018-12-16T04:27:37.665Z,101517.84
2018-12-16T04:30:27.063Z,101517.27
2018-12-16T04:32:56.322Z,101514.87
2018-12-16T04:35:25.600Z,101511.67
2018-12-16T04:37:54.855Z,101520.09
2018-12-16T04:40:24.135Z,101520.97
2018-12-16T04:42:53.401Z,101524.79
2018-12-16T04:45:22.673Z,101521.03
2018-12-16T04:47:51.931Z,101520.02
2018-12-16T04:50:21.199Z,101516.77
2018-12-16T04:52:50.466Z,101512.21
2018-12-16T04:55:19.747Z,101514.16
2018-12-16T04:57:49.011Z,101507.39
2018-12-16T05:00:18.286Z,101505.29
2018-12-16T05:02:47.649Z,101508.88
2018-12-16T05:05:16.923Z,101515.42
2018-12-16T05:10:35.535Z,101505.95
2018-12-16T05:13:04.804Z,101503.79
2018-12-16T05:15:34.085Z,101497.00
2018-12-16T05:18:03.346Z,101490.77
2018-12-16T05:20:32.634Z,101482.38
2018-12-16T05:23:01.898Z,101479.95
2018-12-16T05:25:31.172Z,101480.80
2018-12-16T05:28:00.517Z,101481.66
2018-12-16T05:30:29.804Z,101471.30
2018-12-16T05:32:59.068Z,101473.20
2018-12-16T05:35:28.342Z,101464.23
2018-12-16T05:37:57.617Z,101469.68
2018-12-16T05:40:26.890Z,101473.20
2018-12-16T05:42:56.155Z,101474.29
2018-12-16T05:45:25.430Z,101454.71
2018-12-16T05:47:54.687Z,101452.00
2018-12-16T05:50:24.047Z,101449.84
2018-12-16T05:52:53.307Z,101457.73
2018-12-16T05:55:22.593Z,101439.22
2018-12-16T05:57:51.855Z,101434.88
2018-12-16T06:00:21.146Z,101438.39
2018-12-16T06:02:50.404Z,101427.28
2018-12-16T06:05:19.685Z,101421.04
2018-12-16T06:07:48.948Z,101410.69
2018-12-16T06:10:18.215Z,101398.94
2018-12-16T06:12:47.496Z,101387.78
2018-12-16T06:15:16.778Z,101386.45
2018-12-16T06:17:46.037Z,101385.33
2018-12-16T06:20:15.304Z,101381.55
2018-12-16T06:22:44.558Z,101387.26
2018-12-16T06:25:13.831Z,101387.82
2018-12-16T06:27:43.097Z,101399.84
2018-12-16T06:32:48.425Z,101400.66
2018-12-16T06:35:17.709Z,101401.50
2018-12-16T06:37:46.968Z,101407.47
2018-12-16T06:40:16.249Z,101401.50
2018-12-16T06:42:45.523Z,101401.20
2018-12-16T06:45:14.790Z,101394.66
2018-12-16T06:47:44.059Z,101395.75
2018-12-16T06:50:13.312Z,101405.02
2018-12-16T06:52:42.587Z,101407.17
2018-12-16T06:55:11.855Z,101397.64
2018-12-16T06:57:41.121Z,101399.00
2018-12-16T07:00:10.384Z,101397.08
2018-12-16T07:02:39.664Z,101393.00
2018-12-16T07:05:08.932Z,101395.19
2018-12-16T07:07:38.208Z,101392.47
2018-12-16T07:10:07.465Z,101386.76
2018-12-16T07:12:36.742Z,101391.91
2018-12-16T07:15:06.105Z,101383.21
2018-12-16T07:17:35.373Z,101377.27
2018-12-16T07:20:04.640Z,101391.70
2018-12-16T07:22:33.922Z,101394.16
2018-12-16T07:25:22.246Z,101388.19
2018-12-16T07:27:51.523Z,101393.59
2018-12-16T07:30:20.783Z,101392.50
2018-12-16T07:32:50.057Z,101390.61
2018-12-16T07:35:19.322Z,101384.60
2018-12-16T07:38:08.210Z,101390.31
2018-12-16T07:40:37.459Z,101401.20
2018-12-16T07:43:06.725Z,101393.27
2018-12-16T07:45:35.989Z,101388.39
2018-12-16T07:48:05.266Z,101394.62
2018-12-16T07:50:34.519Z,101388.39
2018-12-16T07:53:03.800Z,101390.81
2018-12-16T07:55:33.072Z,101389.75
2018-12-16T07:58:21.960Z,101385.93
2018-12-16T08:00:51.230Z,101382.67
2018-12-16T08:03:20.533Z,101376.70
2018-12-16T08:05:49.777Z,101374.78
2018-12-16T08:08:19.050Z,101366.62
2018-12-16T08:10:48.318Z,101368.77
2018-12-16T08:13:17.593Z,101367.67
2018-12-16T08:15:46.859Z,101367.41
2018-12-16T08:18:17.124Z,101366.91
2018-12-16T08:20:46.357Z,101355.73
2018-12-16T08:23:15.640Z,101357.06
2018-12-16T08:25:44.937Z,101360.05
2018-12-16T08:28:14.163Z,101361.73
2018-12-16T08:30:43.439Z,101350.62
2018-12-16T08:33:12.712Z,101355.00
2018-12-16T08:35:41.980Z,101347.66
2018-12-16T08:38:11.249Z,101340.59
2018-12-16T08:40:40.519Z,101341.92
2018-12-16T08:43:09.791Z,101340.53
2018-12-16T08:45:39.073Z,101344.61
2018-12-16T08:48:08.343Z,101346.53
2018-12-16T08:50:37.614Z,101347.09
2018-12-16T08:53:06.874Z,101349.28
2018-12-16T08:55:36.129Z,101339.23
2018-12-16T08:58:05.408Z,101345.20
2018-12-16T09:00:34.673Z,101339.76
2018-12-16T09:03:03.934Z,101336.50
2018-12-16T09:05:33.206Z,101333.25
2018-12-16T09:08:02.487Z,101340.62
2018-12-16T09:10:34.269Z,101329.97
2018-12-16T09:13:02.196Z,101334.61
2018-12-16T09:15:31.448Z,101329.73
2018-12-16T09:18:00.722Z,101332.98
2018-12-16T09:20:29.982Z,101335.70
2018-12-16T09:22:59.287Z,101335.41
2018-12-16T09:25:28.623Z,101328.64
2018-12-16T09:27:57.923Z,101336.03
2018-12-16T09:30:27.186Z,101335.23
2018-12-16T09:32:56.455Z,101327.36
2018-12-16T09:35:25.708Z,101335.02
2018-12-16T09:37:54.972Z,101323.56
2018-12-16T09:40:24.249Z,101325.22
2018-12-16T09:42:53.507Z,101324.45
2018-12-16T09:45:22.778Z,101312.76
2018-12-16T09:50:41.301Z,101304.85
2018-12-16T09:53:10.568Z,101305.13
2018-12-16T09:55:39.834Z,101302.64
2018-12-16T09:58:09.159Z,101289.83
2018-12-16T10:00:38.364Z,101284.67
2018-12-16T10:03:07.616Z,101277.87
2018-12-16T10:05:36.885Z,101283.30
2018-12-16T10:08:06.154Z,101273.47
2018-12-16T10:10:35.453Z,101280.57
2018-12-16T10:13:04.718Z,101278.66
2018-12-16T10:15:33.991Z,101293.38
2018-12-16T10:18:03.255Z,101289.59
2018-12-16T10:20:32.532Z,101280.30
2018-12-16T10:23:01.799Z,101267.52
2018-12-16T10:25:31.065Z,101262.05
2018-12-16T10:28:00.315Z,101264.23
2018-12-16T10:30:29.596Z,101264.53
2018-12-16T10:32:58.861Z,101260.71
2018-12-16T10:35:28.141Z,101264.23
2018-12-16T10:37:57.476Z,101247.63
2018-12-16T10:40:26.759Z,101248.15
2018-12-16T10:42:56.012Z,101260.10
2018-12-16T10:45:25.283Z,101261.48
2018-12-16T10:47:54.549Z,101257.14
2018-12-16T10:50:23.832Z,101250.62
2018-12-16T10:52:53.102Z,101233.24
2018-12-16T10:55:22.374Z,101240.84
2018-12-16T10:57:51.632Z,101246.31
2018-12-16T11:00:40.695Z,101240.59
2018-12-16T11:05:59.081Z,101220.75
2018-12-16T11:08:28.336Z,101228.95
2018-12-16T11:10:57.610Z,101219.41
2018-12-16T11:13:26.860Z,101223.50
2018-12-16T11:15:56.147Z,101230.31
2018-12-16T11:18:25.409Z,101228.70
2018-12-16T11:21:13.736Z,101219.48
2018-12-16T11:23:43.003Z,101219.47
2018-12-16T11:26:13.117Z,101221.14
2018-12-16T11:28:42.414Z,101223.05
2018-12-16T11:31:11.721Z,101227.16
2018-12-16T11:33:40.983Z,101220.59
2018-12-16T11:36:10.251Z,101213.52
2018-12-16T11:38:39.518Z,101209.13
2018-12-16T11:41:08.783Z,101208.58
2018-12-16T11:43:38.042Z,101203.69
2018-12-16T11:46:07.310Z,101204.78
2018-12-16T11:48:36.586Z,101198.25
2018-12-16T11:51:05.871Z,101192.55
2018-12-16T11:53:35.138Z,101185.78
2018-12-16T11:56:11.913Z,101187.14
2018-12-16T11:58:41.185Z,101179.24
2018-12-16T12:01:10.471Z,101181.16
2018-12-16T12:03:39.840Z,101181.73
2018-12-16T12:08:43.785Z,101173.81
2018-12-16T12:11:13.056Z,101170.02
2018-12-16T12:13:42.311Z,101157.23
2018-12-16T12:16:11.586Z,101159.97
2018-12-16T12:18:40.870Z,101160.23
2018-12-16T12:21:10.206Z,101152.07
2018-12-16T12:23:39.465Z,101156.45
2018-12-16T12:26:08.729Z,101158.33
2018-12-16T12:28:38.168Z,101154.80
2018-12-16T12:31:07.443Z,101155.05
2018-12-16T12:33:36.694Z,101162.14
2018-12-16T12:36:05.963Z,101157.80
2018-12-16T12:38:35.223Z,101155.60
2018-12-16T12:41:23.543Z,101151.53
2018-12-16T12:43:52.805Z,101152.61
2018-12-16T12:46:22.086Z,101153.44
2018-12-16T12:48:51.340Z,101156.67
2018-12-16T12:51:20.611Z,101157.24
2018-12-16T12:53:49.872Z,101155.30
2018-12-16T12:59:07.517Z,101149.86
2018-12-16T13:01:36.784Z,101154.80
2018-12-16T13:04:06.051Z,101152.60
2018-12-16T13:06:35.330Z,101150.16
2018-12-16T13:09:24.225Z,101144.14
2018-12-16T13:11:53.521Z,101144.12
2018-12-16T13:17:11.209Z,101148.17
2018-12-16T13:22:28.965Z,101145.17
2018-12-16T13:25:36.285Z,101141.38
2018-12-16T13:28:05.595Z,101145.70
2018-12-16T13:30:34.853Z,101143.26
2018-12-16T13:33:04.153Z,101138.34
2018-12-16T13:38:21.808Z,101136.17
2018-12-16T13:40:51.066Z,101137.81
2018-12-16T13:43:20.337Z,101129.38
2018-12-16T13:45:49.596Z,101126.38
2018-12-16T13:50:54.444Z,101127.45
2018-12-16T13:53:23.716Z,101119.02
2018-12-16T13:55:52.977Z,101126.64
2018-12-16T13:58:22.249Z,101122.55
2018-12-16T14:00:51.516Z,101128.00
2018-12-16T14:03:20.784Z,101126.34
2018-12-16T14:05:50.040Z,101127.70
2018-12-16T14:08:19.312Z,101136.70
2018-12-16T14:10:48.576Z,101135.63
2018-12-16T14:13:17.847Z,101137.53
2018-12-16T14:15:52.316Z,101132.34
2018-12-16T14:18:17.290Z,101138.36
2018-12-16T14:20:46.548Z,101115.19
2018-12-16T14:23:15.831Z,101132.61
2018-12-16T14:25:48.215Z,101137.24
2018-12-16T14:28:15.262Z,101137.53
2018-12-16T14:30:44.535Z,101146.53
2018-12-16T14:33:13.809Z,101141.07
2018-12-16T14:35:43.154Z,101140.53
2018-12-16T14:40:49.125Z,101149.20
2018-12-16T14:43:18.418Z,101141.30
2018-12-16T14:45:47.766Z,101149.72
2018-12-16T14:48:17.090Z,101132.57
2018-12-16T14:50:46.309Z,101140.72
2018-12-16T14:53:15.714Z,101139.36
2018-12-16T14:55:44.972Z,101138.83
2018-12-16T14:58:14.236Z,101143.98
2018-12-16T15:00:43.518Z,101141.83
2018-12-16T15:03:12.785Z,101140.46
2018-12-16T15:05:42.053Z,101145.09
2018-12-16T15:13:35.115Z,101164.44
2018-12-16T15:16:04.393Z,101159.61
2018-12-16T15:18:33.671Z,101158.27
2018-12-16T15:21:02.940Z,101157.98
2018-12-16T15:23:32.198Z,101163.67
2018-12-16T15:26:02.152Z,101160.36
2018-12-16T15:28:31.639Z,101160.36
2018-12-16T15:31:00.913Z,101157.23
2018-12-16T15:33:30.178Z,101156.75
2018-12-16T15:35:59.455Z,101155.64
2018-12-16T15:38:28.721Z,101163.26
2018-12-16T15:40:58.004Z,101160.77
2018-12-16T15:43:46.322Z,101161.23
2018-12-16T15:46:15.613Z,101155.84
2018-12-16T15:48:44.888Z,101156.42
2018-12-16T15:51:14.164Z,101161.92
2018-12-16T15:53:43.428Z,101158.11
2018-12-16T15:56:12.699Z,101156.19
2018-12-16T15:58:42.043Z,101154.27
2018-12-16T16:01:11.332Z,101153.70
2018-12-16T16:03:40.604Z,101159.13
2018-12-16T16:06:09.914Z,101163.45
2018-12-16T16:08:39.218Z,101164.24
2018-12-16T16:11:08.490Z,101166.14
2018-12-16T16:13:37.750Z,101165.05
2018-12-16T16:16:07.025Z,101163.93
2018-12-16T16:18:36.298Z,101169.39
2018-12-16T16:21:05.621Z,101163.38
2018-12-16T16:23:34.891Z,101170.73
2018-12-16T16:26:04.208Z,101177.55
2018-12-16T16:28:33.473Z,101184.09
2018-12-16T16:31:02.754Z,101187.36
2018-12-16T16:33:32.018Z,101193.10
2018-12-16T16:38:36.606Z,101194.98
2018-12-16T16:41:06.065Z,101193.59
2018-12-16T16:43:35.330Z,101187.08
2018-12-16T16:46:04.616Z,101189.80
2018-12-16T16:48:33.885Z,101188.70
2018-12-16T16:51:03.165Z,101191.17
2018-12-16T16:53:32.447Z,101185.98
2018-12-16T16:56:01.739Z,101185.70
2018-12-16T16:58:31.001Z,101189.51
2018-12-16T17:01:00.270Z,101193.04
2018-12-16T17:03:29.537Z,101194.13
2018-12-16T17:05:58.808Z,101197.95
2018-12-16T17:08:28.083Z,101194.98
2018-12-16T17:13:32.608Z,101198.00
2018-12-16T17:16:01.893Z,101194.20
2018-12-16T17:18:31.158Z,101180.84
2018-12-16T17:21:00.426Z,101184.38
2018-12-16T17:23:29.715Z,101181.91
2018-12-16T17:25:58.985Z,101183.55
2018-12-16T17:28:28.249Z,101180.55
2018-12-16T17:30:57.520Z,101179.19
2018-12-16T17:33:26.781Z,101193.31
2018-12-16T17:35:56.061Z,101187.59
2018-12-16T17:38:25.335Z,101188.16
2018-12-16T17:40:54.605Z,101193.89
2018-12-16T17:43:23.869Z,101194.96
2018-12-16T17:45:53.134Z,101197.14
2018-12-16T17:48:22.435Z,101206.37
2018-12-16T17:50:51.695Z,101207.67
2018-12-16T17:53:20.965Z,101207.37
2018-12-16T17:55:50.229Z,101205.19
2018-12-16T17:58:19.501Z,101205.45
2018-12-16T18:00:48.836Z,101202.48
2018-12-16T18:03:18.110Z,101205.77
2018-12-16T18:05:47.378Z,101210.64
2018-12-16T18:08:16.651Z,101209.85
2018-12-16T18:10:45.919Z,101211.20
2018-12-16T18:13:15.185Z,101216.40
2018-12-16T18:15:44.465Z,101209.33
2018-12-16T18:18:13.742Z,101207.68
2018-12-16T18:20:43.013Z,101213.64
2018-12-16T18:23:12.293Z,101217.19
2018-12-16T18:25:41.551Z,101217.75
2018-12-16T18:28:10.833Z,101221.29
2018-12-16T18:30:40.111Z,101218.87
2018-12-16T18:33:09.561Z,101218.06
2018-12-16T18:35:38.820Z,101212.62
2018-12-16T18:38:08.102Z,101210.45
2018-12-16T18:40:37.367Z,101209.09
2018-12-16T18:43:06.638Z,101208.52
2018-12-16T18:45:35.942Z,101213.27
2018-12-16T18:48:05.214Z,101217.07
2018-12-16T18:50:34.470Z,101220.30
2018-12-16T18:53:03.737Z,101221.88
2018-12-16T18:55:33.010Z,101226.20
2018-12-16T18:58:02.317Z,101226.22
2018-12-16T19:00:31.573Z,101216.96
2018-12-16T19:03:00.850Z,101213.66
2018-12-16T19:05:30.116Z,101212.01
2018-12-16T19:07:59.419Z,101213.11
2018-12-16T19:10:28.687Z,101217.47
2018-12-16T19:12:57.982Z,101227.30
2018-12-16T19:20:52.824Z,101232.19
2018-12-16T19:23:22.108Z,101237.88
2018-12-16T19:25:51.365Z,101246.59
2018-12-16T19:30:55.279Z,101242.28
2018-12-16T19:33:24.609Z,101230.83
2018-12-16T19:35:53.875Z,101237.09
2018-12-16T19:38:23.136Z,101236.58
2018-12-16T19:40:52.412Z,101243.11
2018-12-16T19:43:21.801Z,101246.14
2018-12-16T19:45:51.105Z,101252.69
2018-12-16T19:48:20.367Z,101248.06
2018-12-16T19:50:49.646Z,101252.15
2018-12-16T19:53:18.914Z,101255.41
2018-12-16T19:55:48.196Z,101255.14
2018-12-16T19:58:17.460Z,101254.58
2018-12-16T20:00:46.740Z,101260.03
2018-12-16T20:03:16.016Z,101255.14
2018-12-16T20:06:04.010Z,101258.98
2018-12-16T20:08:33.291Z,101260.83
2018-12-16T20:11:02.556Z,101262.73
2018-12-16T20:13:31.819Z,101258.92
2018-12-16T20:16:01.581Z,101256.69
2018-12-16T20:18:31.265Z,101258.86
2018-12-16T20:21:00.541Z,101256.94
2018-12-16T20:23:29.801Z,101258.54
2018-12-16T20:25:59.077Z,101263.48
2018-12-16T20:28:47.400Z,101264.84
2018-12-16T20:31:16.693Z,101267.00
2018-12-16T20:33:45.960Z,101276.53
2018-12-16T20:36:15.244Z,101275.73
2018-12-16T20:38:44.501Z,101280.08
2018-12-16T20:41:13.774Z,101272.77
2018-12-16T20:43:43.040Z,101274.44
2018-12-16T20:46:12.327Z,101273.61
2018-12-16T20:48:41.591Z,101277.11
2018-12-16T20:51:10.859Z,101288.55
2018-12-16T20:53:40.124Z,101283.11
2018-12-16T20:56:09.404Z,101285.05
2018-12-16T20:58:38.671Z,101286.71
2018-12-16T21:01:07.946Z,101283.45
2018-12-16T21:03:37.350Z,101284.03
2018-12-16T21:06:06.622Z,101284.84
2018-12-16T21:08:35.883Z,101285.95
2018-12-16T21:11:23.885Z,101287.59
2018-12-16T21:14:11.878Z,101278.64
2018-12-16T21:16:59.889Z,101285.17
2018-12-16T21:22:18.428Z,101288.70
2018-12-16T21:24:47.689Z,101290.30
2018-12-16T21:29:52.516Z,101306.38
2018-12-16T21:32:21.789Z,101305.03
2018-12-16T21:34:51.052Z,101296.86
2018-12-16T21:37:20.323Z,101301.77
2018-12-16T21:39:49.589Z,101305.86
2018-12-16T21:42:18.866Z,101313.77
2018-12-16T21:44:48.144Z,101314.33
2018-12-16T21:47:17.421Z,101312.96
2018-12-16T21:49:46.687Z,101317.00
2018-12-16T21:52:15.980Z,101322.14
2018-12-16T21:54:45.248Z,101322.14
2018-12-16T21:57:14.513Z,101327.85
2018-12-16T22:02:33.063Z,101332.52
2018-12-16T22:05:02.332Z,101330.89
2018-12-16T22:07:31.611Z,101332.54
2018-12-16T22:10:00.873Z,101334.99
2018-12-16T22:12:30.145Z,101336.91
2018-12-16T22:14:59.400Z,101340.19
2018-12-16T22:17:28.666Z,101344.03
2018-12-16T22:19:57.925Z,101338.63
2018-12-16T22:22:27.215Z,101342.47
2018-12-16T22:24:56.482Z,101338.11
2018-12-16T22:27:25.752Z,101335.08
2018-12-16T22:29:55.022Z,101339.95
2018-12-16T22:32:24.291Z,101342.94
2018-12-16T22:34:53.567Z,101339.95
2018-12-16T22:37:22.836Z,101348.42
2018-12-16T22:39:52.104Z,101345.45
2018-12-16T22:42:21.386Z,101341.63
2018-12-16T22:44:50.649Z,101334.80
2018-12-16T22:47:19.985Z,101331.77
2018-12-16T22:49:49.178Z,101333.45
2018-12-16T22:52:18.447Z,101348.45
2018-12-16T22:54:47.718Z,101345.45
2018-12-16T22:57:17.022Z,101346.58
2018-12-16T22:59:46.327Z,101352.02
2018-12-16T23:02:15.599Z,101348.25
2018-12-16T23:04:44.868Z,101340.63
2018-12-16T23:07:14.136Z,101337.36
2018-12-16T23:09:43.390Z,101342.56
2018-12-16T23:12:12.670Z,101342.32
2018-12-16T23:14:41.932Z,101349.13
2018-12-16T23:17:11.221Z,101347.48
2018-12-16T23:19:40.488Z,101343.66
2018-12-16T23:22:09.758Z,101343.62
2018-12-16T23:27:28.280Z,101344.16
2018-12-16T23:29:57.553Z,101352.89
2018-12-16T23:32:26.835Z,101356.67
2018-12-16T23:34:56.099Z,101358.88
2018-12-16T23:37:25.382Z,101349.92
2018-12-16T23:39:54.645Z,101351.84
2018-12-16T23:42:23.927Z,101355.39
2018-12-16T23:44:53.204Z,101359.72
2018-12-16T23:47:22.481Z,101366.28
2018-12-16T23:49:51.742Z,101366.52
2018-12-16T23:52:21.018Z,101367.34
2018-12-16T23:54:50.287Z,101366.81
2018-12-16T23:57:19.560Z,101370.07
